createdAt,value
2019-02-03T00:01:51.476Z,17.30
2019-02-03T00:04:19.769Z,16.73
2019-02-03T00:06:47.997Z,18.00
2019-02-03T00:09:16.562Z,16.70
2019-02-03T00:11:45.819Z,17.27
2019-02-03T00:14:14.014Z,16.67
2019-02-03T00:16:42.305Z,17.17
2019-02-03T00:19:10.674Z,18.73
2019-02-03T00:21:38.927Z,18.93
2019-02-03T00:24:07.181Z,16.50
2019-02-03T00:26:35.430Z,18.30
2019-02-03T00:29:03.817Z,17.37
2019-02-03T00:31:32.008Z,18.70
2019-02-03T00:34:00.746Z,18.20
2019-02-03T00:36:29.004Z,19.67
2019-02-03T00:38:57.249Z,18.00
2019-02-03T00:41:25.573Z,20.70
2019-02-03T00:43:53.819Z,20.63
2019-02-03T00:46:22.016Z,20.37
2019-02-03T00:48:50.584Z,19.83
2019-02-03T00:51:18.793Z,18.83
2019-02-03T00:53:47.021Z,19.70
2019-02-03T00:56:15.200Z,20.70
2019-02-03T00:58:43.430Z,20.60
2019-02-03T01:01:11.698Z,18.40
2019-02-03T01:03:40.109Z,19.20
2019-02-03T01:06:08.292Z,20.30
2019-02-03T01:08:36.509Z,19.67
2019-02-03T01:11:04.965Z,19.50
2019-02-03T01:13:33.179Z,19.73
2019-02-03T01:16:01.465Z,20.20
2019-02-03T01:18:30.028Z,18.67
2019-02-03T01:20:58.325Z,19.50
2019-02-03T01:23:26.617Z,20.37
2019-02-03T01:25:54.901Z,20.17
2019-02-03T01:28:23.091Z,18.70
2019-02-03T01:30:51.313Z,22.03
2019-02-03T01:33:19.781Z,18.37
2019-02-03T01:35:48.084Z,20.60
2019-02-03T01:38:16.432Z,20.30
2019-02-03T01:40:44.636Z,20.07
2019-02-03T01:43:12.844Z,19.37
2019-02-03T01:45:41.070Z,19.50
2019-02-03T01:48:09.539Z,19.20
2019-02-03T01:50:37.765Z,19.93
2019-02-03T01:53:06.066Z,19.77
2019-02-03T01:55:34.245Z,17.40
2019-02-03T01:58:02.463Z,21.17
2019-02-03T02:00:30.656Z,20.70
2019-02-03T02:02:59.261Z,22.93
2019-02-03T02:05:27.613Z,21.37
2019-02-03T02:07:55.869Z,22.90
2019-02-03T02:10:25.617Z,22.73
2019-02-03T02:12:53.921Z,26.00
2019-02-03T02:15:22.192Z,25.23
2019-02-03T02:17:51.220Z,25.90
2019-02-03T02:20:20.420Z,25.30
2019-02-03T02:22:48.781Z,27.47
2019-02-03T02:25:16.991Z,26.60
2019-02-03T02:27:45.216Z,27.40
2019-02-03T02:30:20.761Z,26.47
2019-02-03T02:32:48.956Z,26.37
2019-02-03T02:35:17.159Z,28.10
2019-02-03T02:37:45.403Z,27.33
2019-02-03T02:40:15.196Z,28.23
2019-02-03T02:42:43.411Z,30.33
2019-02-03T02:45:13.208Z,29.30
2019-02-03T02:47:41.400Z,29.70
2019-02-03T02:50:20.169Z,29.03
2019-02-03T02:52:48.522Z,25.00
2019-02-03T02:55:16.817Z,28.70
2019-02-03T02:57:45.533Z,25.80
2019-02-03T03:00:17.889Z,26.80
2019-02-03T03:02:46.160Z,26.27
2019-02-03T03:05:14.540Z,25.23
2019-02-03T03:07:42.960Z,25.50
2019-02-03T03:10:12.740Z,24.70
2019-02-03T03:12:41.165Z,25.57
2019-02-03T03:15:13.330Z,25.30
2019-02-03T03:17:41.641Z,25.37
2019-02-03T03:20:11.113Z,26.03
2019-02-03T03:22:39.376Z,25.70
2019-02-03T03:25:13.227Z,25.57
2019-02-03T03:27:41.445Z,24.67
2019-02-03T03:30:20.269Z,25.10
2019-02-03T03:32:48.522Z,25.97
2019-02-03T03:35:16.777Z,24.90
2019-02-03T03:37:45.265Z,26.27
2019-02-03T03:40:15.060Z,24.50
2019-02-03T03:42:43.299Z,27.27
2019-02-03T03:45:11.953Z,25.80
2019-02-03T03:47:40.233Z,25.40
2019-02-03T03:50:10.062Z,25.57
2019-02-03T03:52:39.472Z,26.23
2019-02-03T03:55:08.249Z,25.50
2019-02-03T03:57:36.508Z,25.10
2019-02-03T04:00:07.887Z,25.73
2019-02-03T04:02:36.121Z,24.37
2019-02-03T04:05:06.140Z,26.60
2019-02-03T04:07:34.421Z,25.50
2019-02-03T04:10:02.641Z,26.00
2019-02-03T04:12:30.857Z,25.93
2019-02-03T04:14:59.077Z,26.00
2019-02-03T04:17:27.297Z,25.00
2019-02-03T04:19:55.860Z,24.80
2019-02-03T04:22:24.052Z,26.00
2019-02-03T04:24:52.293Z,25.23
2019-02-03T04:27:20.551Z,26.87
2019-02-03T04:29:48.853Z,26.00
2019-02-03T04:32:17.047Z,25.80
2019-02-03T04:34:45.640Z,24.50
2019-02-03T04:37:13.861Z,21.77
2019-02-03T04:39:42.094Z,23.67
2019-02-03T04:42:11.292Z,24.13
2019-02-03T04:44:39.485Z,25.20
2019-02-03T04:47:07.717Z,24.37
2019-02-03T04:49:36.312Z,24.30
2019-02-03T04:52:04.630Z,26.43
2019-02-03T04:54:32.925Z,23.77
2019-02-03T04:57:01.116Z,24.37
2019-02-03T04:59:29.358Z,23.33
2019-02-03T05:01:57.619Z,21.30
2019-02-03T05:04:26.251Z,23.30
2019-02-03T05:06:54.500Z,22.50
2019-02-03T05:09:22.693Z,22.10
2019-02-03T05:11:50.885Z,22.80
2019-02-03T05:14:19.107Z,22.10
2019-02-03T05:16:47.377Z,22.67
2019-02-03T05:19:15.595Z,23.30
2019-02-03T05:21:43.861Z,22.53
2019-02-03T05:24:12.077Z,22.10
2019-02-03T05:26:40.305Z,22.27
2019-02-03T05:29:08.522Z,21.43
2019-02-03T05:31:36.741Z,21.83
2019-02-03T05:34:05.004Z,20.23
2019-02-03T05:36:33.195Z,20.97
2019-02-03T05:39:01.416Z,21.50
2019-02-03T05:41:29.633Z,19.97
2019-02-03T05:43:57.952Z,20.40
2019-02-03T05:46:26.207Z,22.53
2019-02-03T05:48:54.437Z,22.90
2019-02-03T05:51:22.634Z,22.00
2019-02-03T05:53:50.836Z,23.20
2019-02-03T05:56:19.028Z,22.27
2019-02-03T05:58:47.260Z,24.27
2019-02-03T06:01:15.555Z,22.87
2019-02-03T06:03:43.894Z,23.10
2019-02-03T06:06:12.162Z,22.90
2019-02-03T06:08:40.353Z,22.30
2019-02-03T06:11:08.610Z,23.83
2019-02-03T06:13:36.899Z,25.50
2019-02-03T06:16:05.198Z,24.90
2019-02-03T06:18:33.667Z,24.10
2019-02-03T06:21:02.017Z,22.93
2019-02-03T06:23:30.213Z,23.17
2019-02-03T06:25:58.445Z,23.47
2019-02-03T06:28:26.700Z,23.43
2019-02-03T06:30:56.522Z,24.60
2019-02-03T06:33:24.785Z,24.17
2019-02-03T06:35:52.981Z,25.60
2019-02-03T06:38:21.205Z,23.80
2019-02-03T06:40:49.497Z,26.67
2019-02-03T06:43:17.765Z,23.80
2019-02-03T06:45:47.589Z,25.50
2019-02-03T06:48:17.457Z,25.17
2019-02-03T06:50:45.712Z,23.83
2019-02-03T06:53:13.973Z,26.47
2019-02-03T06:55:42.155Z,27.20
2019-02-03T06:58:10.434Z,28.07
2019-02-03T07:00:38.659Z,26.67
2019-02-03T07:03:06.908Z,25.00
2019-02-03T07:05:35.133Z,27.10
2019-02-03T07:08:03.428Z,25.80
2019-02-03T07:10:31.637Z,28.00
2019-02-03T07:12:59.846Z,27.20
2019-02-03T07:15:28.106Z,28.93
2019-02-03T07:17:56.397Z,29.43
2019-02-03T07:20:24.579Z,28.00
2019-02-03T07:22:52.809Z,31.80
2019-02-03T07:25:21.110Z,31.67
2019-02-03T07:27:49.410Z,28.80
2019-02-03T07:30:18.939Z,27.10
2019-02-03T07:32:47.143Z,28.80
2019-02-03T07:35:15.332Z,29.90
2019-02-03T07:37:43.570Z,27.17
2019-02-03T07:40:13.334Z,28.10
2019-02-03T07:42:41.553Z,29.50
2019-02-03T07:45:09.789Z,30.37
2019-02-03T07:47:38.078Z,29.03
2019-02-03T07:50:10.305Z,30.10
2019-02-03T07:52:38.606Z,30.23
2019-02-03T07:55:08.596Z,30.77
2019-02-03T07:57:36.822Z,28.70
2019-02-03T08:00:06.547Z,30.13
2019-02-03T08:02:35.338Z,30.67
2019-02-03T08:05:04.094Z,30.07
2019-02-03T08:07:32.481Z,30.47
2019-02-03T08:10:00.766Z,32.53
2019-02-03T08:12:29.039Z,29.30
2019-02-03T08:14:57.232Z,30.17
2019-02-03T08:17:25.444Z,29.20
2019-02-03T08:19:53.669Z,29.20
2019-02-03T08:22:21.963Z,27.03
2019-02-03T08:24:50.176Z,27.23
2019-02-03T08:27:18.444Z,27.70
2019-02-03T08:29:46.662Z,25.77
2019-02-03T08:32:14.892Z,25.17
2019-02-03T08:34:43.153Z,24.40
2019-02-03T08:37:11.368Z,26.10
2019-02-03T08:39:39.619Z,25.00
2019-02-03T08:42:07.833Z,26.63
2019-02-03T08:44:36.136Z,26.10
2019-02-03T08:47:04.432Z,23.90
2019-02-03T08:49:32.912Z,25.23
2019-02-03T08:52:01.101Z,24.40
2019-02-03T08:54:29.286Z,24.67
2019-02-03T08:56:57.523Z,24.33
2019-02-03T08:59:25.800Z,21.20
2019-02-03T09:01:54.101Z,24.47
2019-02-03T09:04:22.589Z,22.37
2019-02-03T09:06:50.857Z,22.03
2019-02-03T09:09:19.083Z,23.07
2019-02-03T09:11:47.408Z,22.47
2019-02-03T09:14:15.692Z,23.20
2019-02-03T09:16:44.005Z,22.53
2019-02-03T09:19:13.495Z,21.30
2019-02-03T09:21:41.681Z,20.63
2019-02-03T09:24:09.888Z,22.00
2019-02-03T09:26:38.077Z,21.17
2019-02-03T09:29:06.301Z,21.80
2019-02-03T09:31:34.588Z,21.97
2019-02-03T09:34:03.461Z,21.73
2019-02-03T09:36:31.841Z,19.87
2019-02-03T09:39:00.099Z,18.73
2019-02-03T09:41:28.296Z,21.37
2019-02-03T09:43:56.534Z,21.70
2019-02-03T09:46:24.813Z,22.03
2019-02-03T09:48:53.618Z,20.60
2019-02-03T09:51:21.834Z,21.20
2019-02-03T09:53:50.120Z,21.97
2019-02-03T09:56:18.317Z,21.73
2019-02-03T09:58:46.503Z,21.40
2019-02-03T10:01:14.701Z,22.37
2019-02-03T10:03:42.992Z,22.17
2019-02-03T10:06:11.210Z,20.80
2019-02-03T10:08:40.991Z,20.40
2019-02-03T10:11:12.139Z,22.77
2019-02-03T10:13:39.417Z,21.73
2019-02-03T10:16:07.646Z,19.07
2019-02-03T10:18:35.905Z,23.43
2019-02-03T10:21:04.264Z,21.50
2019-02-03T10:23:32.485Z,20.53
2019-02-03T10:26:00.790Z,21.10
2019-02-03T10:28:29.081Z,20.03
2019-02-03T10:30:57.292Z,18.63
2019-02-03T10:33:25.492Z,20.70
2019-02-03T10:35:54.572Z,19.90
2019-02-03T10:38:22.802Z,21.13
2019-02-03T10:40:51.059Z,18.67
2019-02-03T10:43:19.266Z,18.77
2019-02-03T10:45:47.497Z,20.17
2019-02-03T10:48:15.720Z,20.00
2019-02-03T10:50:43.903Z,19.23
2019-02-03T10:53:12.276Z,21.77
2019-02-03T10:55:40.592Z,19.30
2019-02-03T10:58:08.933Z,19.70
2019-02-03T11:00:38.763Z,17.87
2019-02-03T11:03:07.024Z,20.57
2019-02-03T11:05:39.803Z,18.50
2019-02-03T11:08:08.961Z,18.90
2019-02-03T11:10:37.265Z,17.83
2019-02-03T11:13:05.587Z,19.97
2019-02-03T11:15:33.881Z,18.80
2019-02-03T11:18:02.177Z,20.10
2019-02-03T11:20:31.340Z,20.53
2019-02-03T11:22:59.656Z,19.43
2019-02-03T11:25:28.799Z,20.17
2019-02-03T11:27:57.089Z,18.93
2019-02-03T11:30:26.427Z,19.17
2019-02-03T11:33:05.419Z,19.57
2019-02-03T11:35:25.075Z,19.77
2019-02-03T11:37:53.759Z,19.40
2019-02-03T11:40:23.188Z,19.93
2019-02-03T11:42:51.417Z,19.00
2019-02-03T11:45:24.258Z,18.40
2019-02-03T11:47:52.597Z,19.80
2019-02-03T11:50:22.316Z,19.60
2019-02-03T11:52:50.973Z,19.67
2019-02-03T11:55:20.208Z,20.80
2019-02-03T11:57:48.395Z,19.57
2019-02-03T12:00:18.188Z,18.93
2019-02-03T12:02:46.376Z,21.00
2019-02-03T12:05:15.553Z,20.13
2019-02-03T12:07:43.849Z,20.40
2019-02-03T12:10:13.626Z,18.33
2019-02-03T12:12:41.945Z,19.47
2019-02-03T12:15:11.672Z,18.87
2019-02-03T12:17:39.969Z,19.40
2019-02-03T12:20:09.695Z,18.90
2019-02-03T12:22:37.891Z,18.20
2019-02-03T12:25:07.620Z,19.20
2019-02-03T12:27:35.877Z,17.70
2019-02-03T12:30:11.557Z,17.90
2019-02-03T12:32:40.160Z,18.90
2019-02-03T12:35:12.857Z,18.50
2019-02-03T12:37:41.149Z,18.63
2019-02-03T12:40:10.918Z,17.63
2019-02-03T12:42:39.158Z,18.20
2019-02-03T12:45:09.221Z,20.03
2019-02-03T12:47:37.403Z,18.07
2019-02-03T12:50:07.164Z,18.70
2019-02-03T12:52:35.358Z,19.97
2019-02-03T12:55:04.540Z,18.13
2019-02-03T12:57:32.740Z,18.50
2019-02-03T13:00:00.932Z,16.43
2019-02-03T13:02:29.124Z,14.73
2019-02-03T13:04:57.358Z,17.10
2019-02-03T13:07:25.612Z,16.10
2019-02-03T13:09:53.833Z,16.47
2019-02-03T13:12:24.910Z,17.93
2019-02-03T13:14:52.195Z,16.30
2019-02-03T13:17:20.575Z,16.23
2019-02-03T13:19:48.801Z,15.93
2019-02-03T13:22:17.068Z,16.73
2019-02-03T13:24:45.264Z,17.23
2019-02-03T13:27:13.569Z,17.37
2019-02-03T13:29:42.642Z,16.13
2019-02-03T13:32:11.239Z,17.43
2019-02-03T13:34:39.440Z,17.20
2019-02-03T13:37:07.631Z,17.30
2019-02-03T13:39:35.861Z,16.07
2019-02-03T13:42:04.208Z,16.23
2019-02-03T13:44:33.682Z,17.40
2019-02-03T13:47:01.901Z,16.47
2019-02-03T13:49:30.164Z,17.33
2019-02-03T13:51:58.360Z,15.90
2019-02-03T13:54:26.601Z,15.65
2019-02-03T13:56:54.796Z,15.93
2019-02-03T13:59:23.012Z,15.00
2019-02-03T14:01:51.321Z,15.00
2019-02-03T14:04:19.615Z,15.55
2019-02-03T14:06:47.875Z,14.73
2019-02-03T14:24:00.524Z,14.95
2019-02-03T14:26:28.820Z,15.20
2019-02-03T14:28:57.306Z,15.40
2019-02-03T14:31:25.487Z,15.77
2019-02-03T14:33:53.717Z,15.27
2019-02-03T14:36:22.009Z,14.77
2019-02-03T14:38:50.280Z,14.30
2019-02-03T14:41:18.476Z,14.83
2019-02-03T14:43:46.947Z,14.37
2019-02-03T14:46:15.247Z,14.33
2019-02-03T14:48:43.573Z,13.70
2019-02-03T14:51:11.789Z,14.40
2019-02-03T14:53:40.013Z,13.40
2019-02-03T14:56:08.195Z,13.33
2019-02-03T14:58:36.688Z,14.30
2019-02-03T15:01:04.972Z,14.63
2019-02-03T15:03:33.156Z,14.10
2019-02-03T15:06:01.362Z,13.00
2019-02-03T15:08:29.543Z,15.03
2019-02-03T15:10:57.773Z,14.47
2019-02-03T15:13:26.240Z,13.80
2019-02-03T15:15:54.447Z,13.83
2019-02-03T15:18:22.664Z,14.43
2019-02-03T15:20:50.931Z,14.50
2019-02-03T15:23:19.144Z,13.65
2019-02-03T15:25:47.332Z,12.63
2019-02-03T15:28:15.889Z,13.73
2019-02-03T15:30:45.161Z,12.80
2019-02-03T15:33:13.432Z,13.87
2019-02-03T15:35:41.655Z,13.80
2019-02-03T15:38:09.951Z,12.70
2019-02-03T15:40:38.203Z,13.13
2019-02-03T15:43:06.468Z,12.80
2019-02-03T15:45:34.651Z,12.30
2019-02-03T15:48:03.026Z,13.20
2019-02-03T15:50:31.315Z,11.93
2019-02-03T15:52:59.525Z,13.53
2019-02-03T15:55:32.333Z,11.70
2019-02-03T15:58:00.620Z,13.47
2019-02-03T16:00:33.025Z,13.40
2019-02-03T16:03:01.277Z,12.87
2019-02-03T16:05:29.505Z,14.43
2019-02-03T16:07:57.716Z,14.03
2019-02-03T16:10:26.778Z,12.10
2019-02-03T16:12:54.997Z,12.67
2019-02-03T16:15:23.252Z,12.07
2019-02-03T16:17:51.480Z,12.17
2019-02-03T16:20:29.247Z,13.03
2019-02-03T16:22:58.487Z,13.30
2019-02-03T16:25:26.840Z,13.30
2019-02-03T16:27:55.143Z,12.00
2019-02-03T16:30:24.745Z,12.27
2019-02-03T16:32:53.731Z,12.27
2019-02-03T16:35:22.016Z,12.70
2019-02-03T16:37:50.216Z,12.90
2019-02-03T16:40:19.898Z,11.27
2019-02-03T16:42:48.240Z,12.40
2019-02-03T16:45:16.603Z,10.43
2019-02-03T16:47:44.874Z,13.23
2019-02-03T16:50:14.774Z,12.40
2019-02-03T16:52:43.017Z,12.27
2019-02-03T16:55:12.176Z,11.67
2019-02-03T16:57:40.372Z,11.60
2019-02-03T17:00:10.113Z,12.27
2019-02-03T17:02:38.333Z,11.83
2019-02-03T17:05:08.197Z,12.40
2019-02-03T17:07:36.798Z,14.17
2019-02-03T17:10:07.211Z,11.70
2019-02-03T17:12:35.462Z,12.37
2019-02-03T17:15:05.200Z,12.80
2019-02-03T17:17:33.413Z,12.90
2019-02-03T17:20:01.692Z,12.40
2019-02-03T17:22:30.489Z,13.30
2019-02-03T17:24:58.698Z,13.07
2019-02-03T17:27:27.038Z,13.50
2019-02-03T17:29:55.494Z,12.33
2019-02-03T17:32:23.709Z,11.87
2019-02-03T17:34:51.960Z,11.90
2019-02-03T17:37:20.516Z,11.73
2019-02-03T17:39:48.700Z,12.90
2019-02-03T17:42:16.908Z,14.00
2019-02-03T17:44:45.092Z,13.17
2019-02-03T17:47:13.275Z,12.87
2019-02-03T17:49:41.532Z,12.47
2019-02-03T17:52:09.818Z,12.43
2019-02-03T17:54:38.108Z,11.30
2019-02-03T17:57:06.436Z,12.00
2019-02-03T17:59:34.717Z,12.60
2019-02-03T18:02:03.037Z,12.03
2019-02-03T18:04:31.249Z,11.43
2019-02-03T18:06:59.506Z,12.07
2019-02-03T18:09:27.784Z,11.63
2019-02-03T18:11:55.972Z,12.37
2019-02-03T18:14:24.951Z,12.50
2019-02-03T18:16:53.398Z,12.97
2019-02-03T18:19:21.649Z,12.63
2019-02-03T18:21:49.880Z,12.40
2019-02-03T18:24:18.332Z,11.80
2019-02-03T18:26:46.532Z,14.23
2019-02-03T18:29:14.757Z,13.83
2019-02-03T18:31:42.942Z,15.43
2019-02-03T18:34:11.195Z,14.77
2019-02-03T18:36:39.456Z,14.70
2019-02-03T18:39:08.300Z,14.37
2019-02-03T18:41:36.492Z,14.20
2019-02-03T18:44:04.884Z,15.47
2019-02-03T18:46:33.137Z,13.43
2019-02-03T18:49:01.474Z,12.70
2019-02-03T18:51:29.755Z,13.50
2019-02-03T18:53:58.407Z,14.90
2019-02-03T18:56:26.642Z,12.50
2019-02-03T18:58:54.895Z,14.03
2019-02-03T19:01:23.105Z,14.67
2019-02-03T19:03:51.292Z,14.47
2019-02-03T19:06:19.520Z,13.57
2019-02-03T19:08:48.183Z,13.10
2019-02-03T19:11:16.369Z,14.23
2019-02-03T19:13:44.571Z,14.70
2019-02-03T19:16:12.764Z,14.27
2019-02-03T19:18:41.058Z,15.20
2019-02-03T19:21:09.318Z,14.33
2019-02-03T19:23:37.624Z,13.10
2019-02-03T19:26:05.910Z,13.30
2019-02-03T19:28:34.212Z,15.03
2019-02-03T19:31:02.497Z,14.30
2019-02-03T19:33:30.732Z,12.80
2019-02-03T19:35:58.945Z,13.07
2019-02-03T19:38:27.133Z,13.30
2019-02-03T19:40:55.502Z,13.60
2019-02-03T19:43:25.129Z,14.03
2019-02-03T19:45:53.634Z,13.27
2019-02-03T19:48:21.963Z,13.73
2019-02-03T19:50:50.177Z,12.50
2019-02-03T19:53:18.481Z,13.60
2019-02-03T19:55:46.698Z,14.00
2019-02-03T19:58:14.964Z,13.60
2019-02-03T20:00:44.336Z,13.53
2019-02-03T20:03:12.685Z,13.07
2019-02-03T20:05:42.977Z,12.40
2019-02-03T20:08:11.001Z,12.00
2019-02-03T20:10:39.286Z,12.27
2019-02-03T20:13:07.552Z,12.77
2019-02-03T20:15:35.770Z,11.57
2019-02-03T20:18:04.503Z,11.83
2019-02-03T20:20:33.781Z,13.07
2019-02-03T20:23:02.036Z,12.23
2019-02-03T20:25:30.734Z,10.87
2019-02-03T20:27:59.253Z,10.60
2019-02-03T20:30:37.969Z,12.50
2019-02-03T20:32:58.063Z,12.20
2019-02-03T20:35:27.924Z,11.40
2019-02-03T20:37:56.123Z,12.03
2019-02-03T20:40:25.885Z,11.83
2019-02-03T20:42:54.237Z,11.13
2019-02-03T20:45:22.591Z,10.27
2019-02-03T20:47:50.818Z,10.40
2019-02-03T20:50:22.185Z,9.40
2019-02-03T20:52:50.382Z,9.60
2019-02-03T20:55:19.437Z,9.00
2019-02-03T20:57:47.657Z,10.00
2019-02-03T21:00:17.491Z,9.47
2019-02-03T21:02:45.793Z,9.47
2019-02-03T21:05:14.002Z,9.83
2019-02-03T21:07:42.429Z,8.23
2019-02-03T21:10:12.293Z,9.87
2019-02-03T21:12:40.498Z,9.27
2019-02-03T21:15:10.449Z,9.63
2019-02-03T21:17:39.804Z,8.20
2019-02-03T21:20:09.625Z,9.77
2019-02-03T21:22:38.044Z,8.93
2019-02-03T21:25:06.304Z,8.47
2019-02-03T21:27:34.536Z,8.50
2019-02-03T21:30:03.773Z,8.63
2019-02-03T21:32:31.949Z,10.07
2019-02-03T21:35:00.473Z,9.23
2019-02-03T21:37:28.855Z,8.03
2019-02-03T21:39:57.125Z,9.10
2019-02-03T21:42:25.326Z,9.53
2019-02-03T21:44:53.545Z,8.50
2019-02-03T21:47:21.820Z,7.57
2019-02-03T21:49:50.011Z,8.40
2019-02-03T21:52:18.201Z,8.07
2019-02-03T21:54:46.585Z,8.00
2019-02-03T21:57:14.790Z,7.77
2019-02-03T21:59:42.956Z,7.50
2019-02-03T22:02:11.349Z,8.30
2019-02-03T22:04:39.529Z,7.73
2019-02-03T22:07:07.733Z,8.63
2019-02-03T22:09:36.248Z,7.77
2019-02-03T22:12:04.587Z,7.17
2019-02-03T22:14:32.786Z,9.60
2019-02-03T22:17:00.992Z,7.63
2019-02-03T22:19:29.176Z,7.37
2019-02-03T22:21:57.353Z,7.57
2019-02-03T22:24:25.957Z,9.27
2019-02-03T22:26:54.188Z,7.60
2019-02-03T22:29:22.418Z,7.30
2019-02-03T22:31:50.706Z,7.40
2019-02-03T22:34:18.985Z,8.20
2019-02-03T22:36:47.211Z,7.10
2019-02-03T22:39:15.761Z,7.10
2019-02-03T22:41:46.822Z,8.50
2019-02-03T22:44:13.848Z,8.17
2019-02-03T22:46:42.040Z,8.20
2019-02-03T22:49:10.217Z,7.67
2019-02-03T22:51:38.472Z,7.67
2019-02-03T22:54:07.126Z,6.90
2019-02-03T22:56:35.304Z,7.03
2019-02-03T22:59:03.866Z,7.47
2019-02-03T23:01:32.217Z,6.90
2019-02-03T23:04:00.587Z,7.80
2019-02-03T23:06:28.831Z,7.47
2019-02-03T23:08:57.417Z,6.50
2019-02-03T23:11:25.727Z,7.70
2019-02-03T23:13:53.992Z,6.63
2019-02-03T23:16:22.197Z,7.10
2019-02-03T23:18:50.478Z,7.10
2019-02-03T23:21:18.656Z,7.47
2019-02-03T23:23:48.036Z,7.60
2019-02-03T23:26:16.324Z,6.73
2019-02-03T23:28:44.565Z,6.97
2019-02-03T23:31:12.852Z,6.37
2019-02-03T23:33:41.031Z,7.33
2019-02-03T23:36:09.322Z,7.20
2019-02-03T23:38:37.572Z,7.80
2019-02-03T23:41:05.792Z,6.90
2019-02-03T23:43:34.066Z,7.30
2019-02-03T23:46:02.289Z,7.07
2019-02-03T23:48:30.475Z,6.40
2019-02-03T23:50:58.679Z,7.60
2019-02-03T23:53:26.868Z,7.27
2019-02-03T23:55:55.164Z,7.37
2019-02-03T23:58:23.344Z,6.70
